createdAt,value
2022-09-16T00:02:26.323Z,9.52
2022-09-16T00:05:14.764Z,9.52
2022-09-16T00:08:02.672Z,9.51
2022-09-16T00:10:51.101Z,9.49
2022-09-16T00:13:39.585Z,9.46
2022-09-16T00:16:29.540Z,9.41
2022-09-16T00:19:17.891Z,9.36
2022-09-16T00:22:06.083Z,9.32
2022-09-16T00:24:54.309Z,9.27
2022-09-16T00:27:42.324Z,9.23
2022-09-16T00:30:30.130Z,9.19
2022-09-16T00:33:19.822Z,9.16
2022-09-16T00:36:14.417Z,9.14
2022-09-16T00:39:02.033Z,9.14
2022-09-16T00:41:50.048Z,9.13
2022-09-16T00:45:02.268Z,9.10
2022-09-16T00:48:01.849Z,9.06
2022-09-16T00:50:59.615Z,9.04
2022-09-16T00:54:00.076Z,9.00
2022-09-16T00:56:53.825Z,8.97
2022-09-16T00:59:49.917Z,8.93
2022-09-16T01:02:38.058Z,8.90
2022-09-16T01:05:27.211Z,8.85
2022-09-16T01:08:15.173Z,8.82
2022-09-16T01:11:03.528Z,8.78
2022-09-16T01:13:52.395Z,8.76
2022-09-16T01:16:46.026Z,8.75
2022-09-16T01:19:49.794Z,8.74
2022-09-16T01:22:43.847Z,8.72
2022-09-16T01:25:49.241Z,8.72
2022-09-16T01:29:20.216Z,8.72
2022-09-16T01:32:27.287Z,8.72
2022-09-16T01:35:48.654Z,8.74
2022-09-16T01:39:04.127Z,8.77
2022-09-16T01:42:21.093Z,8.77
2022-09-16T01:45:21.215Z,8.77
2022-09-16T01:48:18.066Z,8.76
2022-09-16T01:51:31.920Z,8.78
2022-09-16T01:54:32.941Z,8.80
2022-09-16T01:57:53.749Z,8.79
2022-09-16T02:00:44.936Z,8.80
2022-09-16T02:03:38.811Z,8.80
2022-09-16T02:06:29.662Z,8.82
2022-09-16T02:09:23.255Z,8.84
2022-09-16T02:12:21.617Z,8.85
2022-09-16T02:15:18.861Z,8.86
2022-09-16T02:18:20.246Z,8.83
2022-09-16T02:21:14.773Z,8.81
2022-09-16T02:24:10.415Z,8.78
2022-09-16T02:27:04.481Z,8.77
2022-09-16T02:30:05.658Z,8.75
2022-09-16T02:33:05.039Z,8.73
2022-09-16T02:35:55.686Z,8.72
2022-09-16T02:38:50.643Z,8.70
2022-09-16T02:41:40.931Z,8.68
2022-09-16T02:44:28.578Z,8.64
2022-09-16T02:47:33.179Z,8.62
2022-09-16T02:50:45.285Z,8.60
2022-09-16T02:54:25.495Z,8.60
2022-09-16T02:57:14.541Z,8.57
2022-09-16T03:00:03.648Z,8.55
2022-09-16T03:02:51.715Z,8.53
2022-09-16T03:06:08.786Z,8.50
2022-09-16T03:09:00.953Z,8.49
2022-09-16T03:12:20.720Z,8.52
2022-09-16T03:15:21.722Z,8.53
2022-09-16T03:18:51.408Z,8.52
2022-09-16T03:21:59.662Z,8.52
2022-09-16T03:25:19.892Z,8.51
2022-09-16T03:28:17.019Z,8.48
2022-09-16T03:31:17.530Z,8.46
2022-09-16T03:34:33.961Z,8.46
2022-09-16T03:37:24.663Z,8.45
2022-09-16T03:40:19.444Z,8.43
2022-09-16T03:43:18.725Z,8.42
2022-09-16T03:46:15.308Z,8.40
2022-09-16T03:49:03.597Z,8.39
2022-09-16T03:51:51.404Z,8.39
2022-09-16T03:54:39.571Z,8.39
2022-09-16T03:57:28.498Z,8.42
2022-09-16T04:00:16.767Z,8.46
2022-09-16T04:03:04.786Z,8.51
2022-09-16T04:05:57.139Z,8.59
2022-09-16T04:08:50.694Z,8.67
2022-09-16T04:11:40.603Z,8.76
2022-09-16T04:14:28.185Z,8.83
2022-09-16T04:17:15.899Z,8.89
2022-09-16T04:20:06.087Z,8.93
2022-09-16T04:22:54.075Z,8.93
2022-09-16T04:25:44.232Z,8.92
2022-09-16T04:28:33.575Z,8.93
2022-09-16T04:31:22.132Z,8.92
2022-09-16T04:34:13.872Z,8.91
2022-09-16T04:37:01.996Z,8.90
2022-09-16T04:39:49.757Z,8.90
2022-09-16T04:42:40.089Z,8.86
2022-09-16T04:45:28.231Z,8.80
2022-09-16T04:48:18.130Z,8.77
2022-09-16T04:51:10.135Z,8.74
2022-09-16T04:54:00.287Z,8.70
2022-09-16T04:56:48.003Z,8.67
2022-09-16T04:59:36.008Z,8.62
2022-09-16T05:02:24.302Z,8.60
2022-09-16T05:05:12.720Z,8.57
2022-09-16T05:08:00.631Z,8.49
2022-09-16T05:10:48.501Z,8.41
2022-09-16T05:13:37.666Z,8.31
2022-09-16T05:16:25.849Z,8.23
2022-09-16T05:19:16.723Z,8.19
2022-09-16T05:22:07.468Z,8.17
2022-09-16T05:24:55.477Z,8.19
2022-09-16T05:27:43.242Z,8.24
2022-09-16T05:30:32.458Z,8.34
2022-09-16T05:33:23.292Z,8.47
2022-09-16T05:36:20.783Z,8.66
2022-09-16T05:39:22.603Z,8.83
2022-09-16T05:42:13.400Z,9.00
2022-09-16T05:45:01.401Z,9.16
2022-09-16T05:47:50.478Z,9.22
2022-09-16T05:50:38.294Z,9.24
2022-09-16T05:53:29.207Z,9.26
2022-09-16T05:56:24.659Z,9.24
2022-09-16T05:59:14.241Z,9.19
2022-09-16T06:02:02.319Z,9.27
2022-09-16T06:04:51.095Z,9.43
2022-09-16T06:07:39.024Z,9.73
2022-09-16T06:10:29.731Z,10.02
2022-09-16T06:13:19.467Z,10.44
2022-09-16T06:16:10.015Z,10.81
2022-09-16T06:18:58.255Z,10.95
2022-09-16T06:21:47.208Z,11.16
2022-09-16T06:24:34.750Z,11.23
2022-09-16T06:27:23.191Z,11.12
2022-09-16T06:30:13.200Z,11.18
2022-09-16T06:33:01.212Z,11.34
2022-09-16T06:35:48.983Z,11.13
2022-09-16T06:38:38.830Z,10.92
2022-09-16T06:41:27.379Z,10.71
2022-09-16T06:44:15.315Z,10.58
2022-09-16T06:47:03.176Z,10.49
2022-09-16T06:49:51.105Z,10.68
2022-09-16T06:52:39.044Z,12.18
2022-09-16T06:55:27.037Z,13.33
2022-09-16T06:58:15.033Z,13.05
2022-09-16T07:01:13.207Z,13.79
2022-09-16T07:04:10.616Z,15.71
2022-09-16T07:07:10.266Z,15.56
2022-09-16T07:09:59.008Z,14.87
2022-09-16T07:12:47.063Z,14.49
2022-09-16T07:15:42.303Z,15.21
2022-09-16T07:18:39.416Z,16.88
2022-09-16T07:21:30.557Z,17.45
2022-09-16T07:24:18.852Z,17.46
2022-09-16T07:27:06.955Z,16.63
2022-09-16T07:30:00.058Z,15.80
2022-09-16T07:32:49.448Z,15.03
2022-09-16T07:35:37.485Z,14.37
2022-09-16T07:38:25.461Z,13.95
2022-09-16T07:41:20.073Z,14.82
2022-09-16T07:44:11.801Z,16.40
2022-09-16T07:46:59.939Z,17.33
2022-09-16T07:49:47.855Z,17.56
2022-09-16T07:52:35.917Z,16.77
2022-09-16T07:55:23.865Z,15.78
2022-09-16T07:58:12.069Z,14.87
2022-09-16T08:01:04.322Z,14.13
2022-09-16T08:03:53.576Z,13.61
2022-09-16T08:06:41.216Z,13.56
2022-09-16T08:09:50.003Z,13.43
2022-09-16T08:12:36.919Z,13.08
2022-09-16T08:15:25.111Z,12.67
2022-09-16T08:18:13.229Z,12.27
2022-09-16T08:21:09.856Z,11.85
2022-09-16T08:23:58.356Z,11.46
2022-09-16T08:26:46.426Z,11.07
2022-09-16T08:29:34.603Z,10.82
2022-09-16T08:32:22.795Z,10.66
2022-09-16T08:35:14.590Z,10.64
2022-09-16T08:38:02.989Z,10.78
2022-09-16T08:40:53.641Z,11.01
2022-09-16T08:44:23.246Z,11.30
2022-09-16T08:47:48.150Z,11.86
2022-09-16T08:50:41.897Z,13.43
2022-09-16T08:54:05.503Z,15.16
2022-09-16T08:57:00.168Z,15.55
2022-09-16T08:59:58.198Z,16.17
2022-09-16T09:03:09.616Z,16.12
2022-09-16T09:06:00.625Z,16.21
2022-09-16T09:09:03.862Z,16.21
2022-09-16T09:12:35.723Z,16.17
2022-09-16T09:15:55.019Z,16.07
2022-09-16T09:18:59.945Z,15.51
2022-09-16T09:21:56.815Z,15.08
2022-09-16T09:25:24.086Z,15.25
2022-09-16T09:28:39.091Z,15.29
2022-09-16T09:31:34.195Z,15.38
2022-09-16T09:34:25.029Z,15.32
2022-09-16T09:37:20.324Z,15.01
2022-09-16T09:40:42.803Z,14.69
2022-09-16T09:43:44.362Z,14.23
2022-09-16T09:46:45.244Z,13.79
2022-09-16T09:49:37.835Z,13.34
2022-09-16T09:52:44.572Z,13.03
2022-09-16T09:55:35.442Z,12.78
2022-09-16T09:58:55.754Z,12.63
2022-09-16T10:01:44.077Z,12.38
2022-09-16T10:04:38.537Z,12.27
2022-09-16T10:07:28.850Z,12.16
2022-09-16T10:10:24.052Z,12.15
2022-09-16T10:13:13.402Z,12.09
2022-09-16T10:16:16.230Z,12.04
2022-09-16T10:19:21.657Z,12.13
2022-09-16T10:22:25.829Z,12.47
2022-09-16T10:25:25.355Z,12.56
2022-09-16T10:28:25.658Z,12.54
2022-09-16T10:31:13.711Z,12.51
2022-09-16T10:34:04.948Z,12.43
2022-09-16T10:37:24.572Z,12.38
2022-09-16T10:40:18.584Z,12.31
2022-09-16T10:43:15.273Z,12.33
2022-09-16T10:46:05.299Z,12.41
2022-09-16T10:49:00.630Z,12.54
2022-09-16T10:51:48.733Z,12.65
2022-09-16T10:54:36.652Z,12.83
2022-09-16T10:57:30.725Z,12.97
2022-09-16T11:00:23.296Z,13.03
2022-09-16T11:03:54.010Z,13.08
2022-09-16T11:07:16.295Z,13.14
2022-09-16T11:10:23.515Z,13.43
2022-09-16T11:13:20.373Z,13.97
2022-09-16T11:16:48.829Z,14.47
2022-09-16T11:20:00.942Z,14.82
2022-09-16T11:23:44.068Z,15.05
2022-09-16T11:26:38.373Z,15.27
2022-09-16T11:29:54.530Z,15.23
2022-09-16T11:33:22.475Z,14.98
2022-09-16T11:37:17.750Z,14.27
2022-09-16T11:40:24.600Z,13.39
2022-09-16T11:44:02.574Z,12.73
2022-09-16T11:47:19.914Z,12.17
2022-09-16T11:50:38.949Z,11.91
2022-09-16T11:54:14.062Z,11.85
2022-09-16T11:57:16.911Z,11.83
2022-09-16T12:00:25.358Z,11.80
2022-09-16T12:03:37.552Z,12.15
2022-09-16T12:06:30.755Z,12.76
2022-09-16T12:09:28.417Z,13.45
2022-09-16T12:12:22.684Z,14.06
2022-09-16T12:15:43.265Z,14.45
2022-09-16T12:18:45.977Z,14.72
2022-09-16T12:21:49.648Z,14.90
2022-09-16T12:24:54.121Z,14.97
2022-09-16T12:27:55.500Z,15.27
2022-09-16T12:30:53.784Z,15.49
2022-09-16T12:34:02.274Z,15.72
2022-09-16T12:37:03.941Z,15.88
2022-09-16T12:39:53.162Z,15.78
2022-09-16T12:42:56.458Z,15.60
2022-09-16T12:46:01.811Z,15.24
2022-09-16T12:49:11.319Z,14.78
2022-09-16T12:52:50.384Z,14.56
2022-09-16T12:55:41.482Z,14.58
2022-09-16T12:59:21.924Z,14.41
2022-09-16T13:02:29.890Z,13.97
2022-09-16T13:05:33.814Z,13.95
2022-09-16T13:08:29.388Z,13.86
2022-09-16T13:14:54.431Z,13.42
2022-09-16T13:17:42.374Z,13.13
2022-09-16T13:20:36.927Z,12.85
2022-09-16T13:23:40.551Z,12.64
2022-09-16T13:26:44.946Z,12.46
2022-09-16T13:29:38.857Z,12.30
2022-09-16T13:32:43.830Z,12.22
2022-09-16T13:35:31.416Z,12.15
2022-09-16T13:38:19.219Z,12.10
2022-09-16T13:41:10.075Z,12.08
2022-09-16T13:43:58.945Z,12.11
2022-09-16T13:46:46.674Z,12.17
2022-09-16T13:49:36.649Z,12.22
2022-09-16T13:52:28.344Z,12.33
2022-09-16T13:55:27.537Z,12.40
2022-09-16T13:58:38.230Z,12.42
2022-09-16T14:01:58.993Z,12.38
2022-09-16T14:05:22.187Z,12.59
2022-09-16T14:08:32.241Z,12.87
2022-09-16T14:11:47.142Z,12.96
2022-09-16T14:14:46.957Z,13.02
2022-09-16T14:17:40.031Z,13.01
2022-09-16T14:20:28.013Z,13.01
2022-09-16T14:23:23.860Z,13.05
2022-09-16T14:26:16.604Z,13.20
2022-09-16T14:29:05.754Z,13.35
2022-09-16T14:31:57.065Z,13.43
2022-09-16T14:34:45.276Z,13.44
2022-09-16T14:37:34.485Z,13.44
2022-09-16T14:40:25.912Z,13.41
2022-09-16T14:43:20.998Z,13.40
2022-09-16T14:46:09.165Z,13.44
2022-09-16T14:48:57.197Z,13.48
2022-09-16T14:51:55.245Z,13.47
2022-09-16T14:54:46.842Z,13.43
2022-09-16T14:57:34.626Z,13.38
2022-09-16T15:00:30.954Z,13.30
2022-09-16T15:03:47.466Z,13.17
2022-09-16T15:06:47.123Z,13.08
2022-09-16T15:09:52.095Z,12.96
2022-09-16T15:12:50.257Z,12.84
2022-09-16T15:15:44.674Z,12.76
2022-09-16T15:18:38.586Z,12.72
2022-09-16T15:21:35.872Z,12.68
2022-09-16T15:24:31.466Z,12.61
2022-09-16T15:27:29.876Z,12.52
2022-09-16T15:30:26.457Z,12.49
2022-09-16T15:33:35.619Z,12.43
2022-09-16T15:36:42.094Z,12.40
2022-09-16T15:39:39.137Z,12.36
2022-09-16T15:42:27.961Z,12.32
2022-09-16T15:45:20.222Z,12.23
2022-09-16T15:48:21.206Z,12.09
2022-09-16T15:51:37.386Z,12.01
2022-09-16T15:54:38.234Z,11.95
2022-09-16T15:57:39.562Z,11.91
2022-09-16T16:00:27.686Z,11.88
2022-09-16T16:03:21.369Z,11.88
2022-09-16T16:06:10.028Z,11.87
2022-09-16T16:08:58.441Z,11.87
2022-09-16T16:11:46.945Z,11.86
2022-09-16T16:14:36.653Z,11.84
2022-09-16T16:17:26.108Z,11.78
2022-09-16T16:20:16.415Z,11.74
2022-09-16T16:23:08.247Z,11.68
2022-09-16T16:25:56.406Z,11.61
2022-09-16T16:28:44.225Z,11.52
2022-09-16T16:31:33.016Z,11.40
2022-09-16T16:34:20.840Z,11.28
2022-09-16T16:37:19.138Z,11.17
2022-09-16T16:40:16.824Z,11.07
2022-09-16T16:43:05.059Z,10.98
2022-09-16T16:45:57.163Z,10.91
2022-09-16T16:48:45.124Z,10.81
2022-09-16T16:51:33.177Z,10.75
2022-09-16T16:54:22.515Z,10.68
2022-09-16T16:57:12.015Z,10.61
2022-09-16T17:00:00.102Z,10.56
2022-09-16T17:02:49.312Z,10.51
2022-09-16T17:05:37.342Z,10.45
2022-09-16T17:08:25.251Z,10.37
2022-09-16T17:11:26.806Z,10.29
2022-09-16T17:14:16.118Z,10.19
2022-09-16T17:17:04.452Z,10.12
2022-09-16T17:19:52.878Z,10.07
2022-09-16T17:22:43.110Z,10.03
2022-09-16T17:25:31.215Z,9.98
2022-09-16T17:28:18.874Z,9.96
2022-09-16T17:31:14.008Z,9.94
2022-09-16T17:34:09.857Z,9.92
2022-09-16T17:36:58.661Z,9.92
2022-09-16T17:39:48.125Z,9.92
2022-09-16T17:42:36.030Z,9.93
2022-09-16T17:45:24.660Z,9.95
2022-09-16T17:48:12.626Z,9.97
2022-09-16T17:51:00.968Z,9.99
2022-09-16T17:53:48.990Z,10.02
2022-09-16T17:56:39.835Z,10.02
2022-09-16T17:59:27.907Z,10.03
2022-09-16T18:02:18.309Z,10.04
2022-09-16T18:05:07.094Z,10.02
2022-09-16T18:07:55.170Z,10.02
2022-09-16T18:10:52.735Z,10.02
2022-09-16T18:13:42.093Z,10.01
2022-09-16T18:16:30.818Z,10.00
2022-09-16T18:19:18.929Z,9.99
2022-09-16T18:22:06.803Z,10.00
2022-09-16T18:24:54.569Z,9.98
2022-09-16T18:27:44.321Z,9.97
2022-09-16T18:30:32.331Z,9.95
2022-09-16T18:33:20.312Z,9.94
2022-09-16T18:36:13.212Z,9.93
2022-09-16T18:39:02.061Z,9.91
2022-09-16T18:41:49.667Z,9.89
2022-09-16T18:44:37.855Z,9.88
2022-09-16T18:47:26.704Z,9.85
2022-09-16T18:50:15.447Z,9.85
2022-09-16T18:53:03.396Z,9.83
2022-09-16T18:55:56.947Z,9.78
2022-09-16T18:58:58.306Z,9.74
2022-09-16T19:01:57.967Z,9.71
2022-09-16T19:04:46.231Z,9.66
2022-09-16T19:07:34.100Z,9.64
2022-09-16T19:10:22.062Z,9.61
2022-09-16T19:13:09.994Z,9.60
2022-09-16T19:15:58.293Z,9.60
2022-09-16T19:18:53.285Z,9.60
2022-09-16T19:21:42.715Z,9.60
2022-09-16T19:24:38.947Z,9.59
2022-09-16T19:27:27.082Z,9.58
2022-09-16T19:30:14.973Z,9.56
2022-09-16T19:33:03.071Z,9.55
2022-09-16T19:35:50.969Z,9.53
2022-09-16T19:38:40.143Z,9.52
2022-09-16T19:41:34.437Z,9.50
2022-09-16T19:44:22.457Z,9.48
2022-09-16T19:47:10.398Z,9.47
2022-09-16T19:49:58.527Z,9.44
2022-09-16T19:52:46.637Z,9.42
2022-09-16T19:55:34.374Z,9.37
2022-09-16T19:58:22.350Z,9.34
2022-09-16T20:01:18.157Z,9.34
2022-09-16T20:04:09.292Z,9.32
2022-09-16T20:07:00.359Z,9.30
2022-09-16T20:09:48.425Z,9.28
2022-09-16T20:12:36.497Z,9.27
2022-09-16T20:15:25.289Z,9.27
2022-09-16T20:18:13.655Z,9.28
2022-09-16T20:21:03.441Z,9.27
2022-09-16T20:23:52.677Z,9.25
2022-09-16T20:26:40.731Z,9.24
2022-09-16T20:29:29.067Z,9.21
2022-09-16T20:32:17.154Z,9.20
2022-09-16T20:35:05.615Z,9.17
2022-09-16T20:37:54.670Z,9.14
2022-09-16T20:40:45.020Z,9.10
2022-09-16T20:43:34.320Z,9.08
2022-09-16T20:46:39.271Z,9.06
2022-09-16T20:49:26.895Z,9.03
2022-09-16T20:52:14.968Z,9.02
2022-09-16T20:55:06.495Z,9.00
2022-09-16T20:57:55.860Z,8.99
2022-09-16T21:00:45.170Z,8.98
2022-09-16T21:03:33.857Z,8.97
2022-09-16T21:06:23.539Z,8.96
2022-09-16T21:09:14.903Z,8.95
2022-09-16T21:12:03.060Z,8.96
2022-09-16T21:14:50.960Z,8.95
2022-09-16T21:17:38.939Z,8.95
2022-09-16T21:20:29.307Z,8.96
2022-09-16T21:23:17.059Z,8.94
2022-09-16T21:26:15.122Z,8.94
2022-09-16T21:29:11.313Z,8.94
2022-09-16T21:32:03.533Z,8.92
2022-09-16T21:34:53.177Z,8.92
2022-09-16T21:37:41.108Z,8.91
2022-09-16T21:40:29.152Z,8.90
2022-09-16T21:43:16.990Z,8.89
2022-09-16T21:46:05.863Z,8.88
2022-09-16T21:49:02.224Z,8.87
2022-09-16T21:51:55.268Z,8.88
2022-09-16T21:54:45.996Z,8.89
2022-09-16T21:57:33.829Z,8.89
2022-09-16T22:00:21.678Z,8.90
2022-09-16T22:03:09.496Z,8.91
2022-09-16T22:06:00.690Z,8.91
2022-09-16T22:08:49.371Z,8.90
2022-09-16T22:11:42.523Z,8.91
2022-09-16T22:14:31.080Z,8.93
2022-09-16T22:17:18.822Z,8.95
2022-09-16T22:20:08.234Z,8.98
2022-09-16T22:22:56.600Z,9.02
2022-09-16T22:25:45.579Z,9.04
2022-09-16T22:28:35.397Z,9.08
2022-09-16T22:31:30.264Z,9.10
2022-09-16T22:34:18.317Z,9.12
2022-09-16T22:37:09.475Z,9.13
2022-09-16T22:39:57.666Z,9.14
2022-09-16T22:42:45.811Z,9.16
2022-09-16T22:45:33.482Z,9.17
2022-09-16T22:48:21.481Z,9.20
2022-09-16T22:51:13.163Z,9.23
2022-09-16T22:54:00.960Z,9.24
2022-09-16T22:56:49.031Z,9.24
2022-09-16T22:59:39.894Z,9.21
2022-09-16T23:02:29.224Z,9.19
2022-09-16T23:05:17.339Z,9.15
2022-09-16T23:08:05.229Z,9.11
2022-09-16T23:10:55.737Z,9.06
2022-09-16T23:13:45.573Z,9.01
2022-09-16T23:16:37.387Z,8.97
2022-09-16T23:19:25.255Z,8.92
2022-09-16T23:22:13.175Z,8.88
2022-09-16T23:25:01.220Z,8.85
2022-09-16T23:27:50.273Z,8.82
2022-09-16T23:30:38.462Z,8.80
2022-09-16T23:33:26.609Z,8.79
2022-09-16T23:36:17.339Z,8.77
2022-09-16T23:39:09.479Z,8.76
2022-09-16T23:41:57.319Z,8.77
2022-09-16T23:44:45.893Z,8.79
2022-09-16T23:47:33.718Z,8.81
2022-09-16T23:50:22.709Z,8.84
2022-09-16T23:53:10.338Z,8.89
2022-09-16T23:55:58.494Z,8.94
2022-09-16T23:58:46.637Z,9.00
